Terminal Aerodrome Forecast
Issued by NWS

Home | Current Version | Previous Version | Text Only | Print | Product List | Glossary Off
Versions: 1 2 3 4 5 6 7 8 9 10 11 12 13 14 15 16

000
FTUS43 KICT 222337
TAFRSL
TAF
KRSL 222337Z 2300/2324 18014G20KT P6SM SKC
     FM230200 18009KT 5SM BR SCT006 OVC015
     FM230400 18009KT 2SM BR SCT003 OVC009
      TEMPO 2311/2314 1SM BR OVC004
     FM231400 34026G33KT P6SM VCSH BKN015
     FM232000 34026G33KT P6SM BKN060=

USA.gov is the U.S. government's official web portal to all federal, state and local government web resources and services.